createdAt,value
2019-01-25T00:03:10.224Z,116.93
2019-01-25T00:07:14.668Z,108.70
2019-01-25T00:11:19.537Z,105.97
2019-01-25T00:15:24.460Z,117.67
2019-01-25T00:19:29.656Z,117.13
2019-01-25T00:23:34.676Z,114.67
2019-01-25T00:27:39.946Z,115.00
2019-01-25T00:31:44.878Z,119.27
2019-01-25T00:35:49.805Z,116.00
2019-01-25T00:39:54.814Z,132.50
2019-01-25T00:43:59.759Z,122.10
2019-01-25T00:48:05.001Z,118.73
2019-01-25T00:52:09.930Z,129.47
2019-01-25T00:56:14.855Z,111.00
2019-01-25T01:00:23.234Z,116.77
2019-01-25T01:04:28.263Z,128.27
2019-01-25T01:08:33.578Z,111.07
2019-01-25T01:12:38.548Z,122.60
2019-01-25T01:16:43.514Z,115.77
2019-01-25T01:20:48.426Z,104.60
2019-01-25T01:24:53.399Z,117.07
2019-01-25T01:28:58.323Z,117.37
2019-01-25T01:33:03.279Z,135.40
2019-01-25T01:37:08.282Z,124.03
2019-01-25T01:41:13.215Z,121.73
2019-01-25T01:45:18.184Z,127.27
2019-01-25T01:49:26.950Z,122.07
2019-01-25T01:53:31.882Z,133.37
2019-01-25T01:57:36.823Z,126.40
2019-01-25T02:01:42.046Z,126.77
2019-01-25T02:05:46.955Z,122.30
2019-01-25T02:09:52.002Z,134.67
2019-01-25T02:13:57.006Z,138.73
2019-01-25T02:18:01.944Z,132.03
2019-01-25T02:22:06.995Z,122.27
2019-01-25T02:26:11.901Z,132.53
2019-01-25T02:30:20.025Z,149.40
2019-01-25T02:34:25.263Z,148.17
2019-01-25T02:38:30.261Z,137.10
2019-01-25T02:42:35.188Z,143.87
2019-01-25T02:46:40.122Z,151.00
2019-01-25T02:50:45.055Z,149.10
2019-01-25T02:54:50.348Z,145.23
2019-01-25T02:58:55.277Z,145.67
2019-01-25T03:03:00.221Z,160.77
2019-01-25T03:07:05.146Z,150.27
2019-01-25T03:11:10.213Z,140.90
2019-01-25T03:15:18.249Z,161.87
2019-01-25T03:19:23.209Z,160.83
2019-01-25T03:23:28.428Z,177.20
2019-01-25T03:27:33.369Z,157.40
2019-01-25T03:31:38.320Z,187.63
2019-01-25T03:35:43.249Z,204.67
2019-01-25T03:39:48.260Z,160.83
2019-01-25T03:43:53.177Z,173.13
2019-01-25T03:47:58.200Z,180.60
2019-01-25T03:52:03.123Z,171.43
2019-01-25T03:56:08.067Z,166.60
2019-01-25T04:00:16.601Z,163.37
2019-01-25T04:04:21.545Z,170.97
2019-01-25T04:08:26.478Z,191.73
2019-01-25T04:12:31.429Z,196.63
2019-01-25T04:16:36.346Z,179.70
2019-01-25T04:20:41.386Z,187.93
2019-01-25T04:24:46.297Z,174.23
2019-01-25T04:28:51.612Z,169.13
2019-01-25T04:32:56.525Z,188.40
2019-01-25T04:37:01.467Z,172.60
2019-01-25T04:41:11.490Z,169.77
2019-01-25T04:45:15.726Z,178.37
2019-01-25T04:49:20.754Z,184.53
2019-01-25T04:53:25.676Z,181.33
2019-01-25T04:57:30.661Z,188.67
2019-01-25T05:01:35.575Z,176.87
2019-01-25T05:05:40.564Z,194.70
2019-01-25T05:09:45.814Z,200.63
2019-01-25T05:13:50.710Z,186.10
2019-01-25T05:17:55.984Z,193.80
2019-01-25T05:22:00.911Z,191.53
2019-01-25T05:26:05.808Z,196.37
2019-01-25T05:30:12.160Z,192.00
2019-01-25T05:34:17.045Z,199.77
2019-01-25T05:38:22.011Z,190.93
2019-01-25T05:42:26.934Z,187.63
2019-01-25T05:46:31.863Z,189.20
2019-01-25T05:50:36.787Z,178.87
2019-01-25T05:54:44.143Z,193.10
2019-01-25T05:58:49.241Z,195.80
2019-01-25T06:02:54.207Z,197.77
2019-01-25T06:06:59.169Z,208.43
2019-01-25T06:11:14.635Z,207.87
2019-01-25T06:15:19.654Z,217.90
2019-01-25T06:19:24.557Z,198.50
2019-01-25T06:23:29.585Z,208.47
2019-01-25T06:27:38.225Z,208.50
2019-01-25T06:31:43.322Z,213.00
2019-01-25T06:35:48.227Z,215.87
2019-01-25T06:39:53.237Z,218.30
2019-01-25T06:43:58.411Z,248.10
2019-01-25T06:48:03.430Z,238.87
2019-01-25T06:52:08.358Z,250.47
2019-01-25T06:56:13.508Z,208.70
2019-01-25T07:00:20.710Z,251.47
2019-01-25T07:04:25.664Z,258.77
2019-01-25T07:08:30.573Z,213.77
2019-01-25T07:12:35.459Z,233.53
2019-01-25T07:16:40.832Z,220.40
2019-01-25T07:20:46.067Z,204.10
2019-01-25T07:24:57.195Z,204.10
2019-01-25T07:28:57.590Z,220.53
2019-01-25T07:33:03.027Z,246.67
2019-01-25T07:37:07.963Z,214.20
2019-01-25T07:41:12.875Z,236.53
2019-01-25T07:45:17.842Z,223.13
2019-01-25T07:49:23.043Z,214.53
2019-01-25T07:53:27.979Z,225.93
2019-01-25T07:57:32.992Z,217.17
2019-01-25T08:01:38.257Z,255.27
2019-01-25T08:05:43.201Z,189.67
2019-01-25T08:09:48.083Z,213.37
2019-01-25T08:13:53.004Z,227.13
2019-01-25T08:17:57.926Z,236.03
2019-01-25T08:22:02.812Z,266.40
2019-01-25T08:26:07.799Z,240.67
2019-01-25T08:30:14.395Z,241.13
2019-01-25T08:34:19.404Z,207.77
2019-01-25T08:38:24.334Z,238.83
2019-01-25T08:42:29.289Z,210.67
2019-01-25T08:46:35.096Z,218.00
2019-01-25T08:50:40.097Z,197.67
2019-01-25T08:54:44.999Z,190.67
2019-01-25T08:58:49.915Z,205.40
2019-01-25T09:02:54.818Z,181.63
2019-01-25T09:06:59.723Z,192.37
2019-01-25T09:11:04.634Z,202.33
2019-01-25T09:15:13.409Z,203.57
2019-01-25T09:19:18.324Z,208.07
2019-01-25T09:23:23.219Z,208.97
2019-01-25T09:27:28.117Z,189.60
2019-01-25T09:31:33.025Z,187.23
2019-01-25T09:35:37.949Z,181.97
2019-01-25T09:39:42.841Z,161.57
2019-01-25T09:43:47.844Z,182.17
2019-01-25T09:47:52.760Z,188.47
2019-01-25T09:51:57.683Z,168.33
2019-01-25T09:56:02.595Z,179.90
2019-01-25T10:00:19.794Z,191.77
2019-01-25T10:04:24.677Z,105.77
2019-01-25T10:08:29.602Z,159.03
2019-01-25T10:12:38.837Z,180.20
2019-01-25T10:16:41.136Z,177.03
2019-01-25T10:20:46.030Z,182.33
2019-01-25T10:24:50.938Z,167.43
2019-01-25T10:28:55.869Z,185.80
2019-01-25T10:33:00.780Z,180.50
2019-01-25T10:37:05.843Z,172.23
2019-01-25T10:41:10.739Z,174.47
2019-01-25T10:45:25.344Z,144.93
2019-01-25T10:49:30.264Z,131.70
2019-01-25T10:53:35.144Z,99.57
2019-01-25T10:57:40.103Z,99.67
2019-01-25T11:01:44.995Z,97.40
2019-01-25T11:05:50.081Z,96.90
2019-01-25T11:09:54.981Z,93.10
2019-01-25T11:13:59.907Z,54.57
2019-01-25T11:18:05.297Z,64.77
2019-01-25T11:22:10.198Z,58.90
2019-01-25T11:26:15.095Z,53.80
2019-01-25T11:30:20.108Z,54.27
2019-01-25T11:34:25.037Z,50.10
2019-01-25T11:38:29.938Z,54.90
2019-01-25T11:42:34.855Z,51.47
2019-01-25T11:46:40.045Z,58.90
2019-01-25T11:50:44.986Z,51.33
2019-01-25T11:54:50.490Z,56.03
2019-01-25T11:58:55.470Z,56.37
2019-01-25T12:03:00.442Z,52.07
2019-01-25T12:07:05.345Z,53.33
2019-01-25T12:11:10.279Z,50.37
2019-01-25T12:15:16.915Z,55.60
2019-01-25T12:19:21.785Z,52.23
2019-01-25T12:23:26.716Z,57.00
2019-01-25T12:27:31.651Z,51.37
2019-01-25T12:31:37.274Z,47.47
2019-01-25T12:35:44.450Z,46.57
2019-01-25T12:39:49.467Z,47.13
2019-01-25T12:43:54.460Z,53.63
2019-01-25T12:47:59.819Z,48.47
2019-01-25T12:52:09.899Z,45.53
2019-01-25T12:56:14.786Z,43.60
2019-01-25T13:00:23.700Z,39.77
2019-01-25T13:04:28.671Z,40.10
2019-01-25T13:08:33.669Z,41.73
2019-01-25T13:12:38.563Z,41.47
2019-01-25T13:16:43.698Z,35.00
2019-01-25T13:20:48.960Z,36.73
2019-01-25T13:24:53.900Z,37.43
2019-01-25T13:28:58.775Z,32.83
2019-01-25T13:33:03.757Z,35.07
2019-01-25T13:37:08.993Z,33.80
2019-01-25T13:41:13.903Z,32.10
2019-01-25T13:45:19.587Z,34.10
2019-01-25T13:49:24.495Z,35.30
2019-01-25T13:53:29.433Z,33.07
2019-01-25T13:57:34.308Z,32.17
2019-01-25T14:01:39.236Z,32.87
2019-01-25T14:05:44.371Z,31.47
2019-01-25T14:09:49.716Z,32.40
2019-01-25T14:13:54.685Z,31.80
2019-01-25T14:17:59.659Z,34.13
2019-01-25T14:22:04.596Z,33.40
2019-01-25T14:26:09.523Z,23.87
2019-01-25T14:30:50.517Z,34.70
2019-01-25T14:34:55.824Z,31.43
2019-01-25T14:39:00.808Z,34.30
2019-01-25T14:43:05.801Z,34.10
2019-01-25T14:47:10.730Z,36.83
2019-01-25T14:51:15.788Z,33.60
2019-01-25T14:55:20.788Z,34.83
2019-01-25T14:59:25.978Z,34.97
2019-01-25T15:03:30.996Z,36.20
2019-01-25T15:07:35.913Z,34.43
2019-01-25T15:11:40.821Z,29.80
2019-01-25T15:15:45.950Z,32.47
2019-01-25T15:19:51.199Z,32.13
2019-01-25T15:23:56.075Z,30.97
2019-01-25T15:28:00.976Z,36.03
2019-01-25T15:32:06.095Z,41.00
2019-01-25T15:36:11.684Z,37.00
2019-01-25T15:40:17.340Z,40.90
2019-01-25T15:44:22.325Z,38.80
2019-01-25T15:48:28.919Z,36.40
2019-01-25T15:52:33.859Z,51.23
2019-01-25T15:56:38.817Z,23.20
2019-01-25T16:00:44.102Z,42.77
2019-01-25T16:04:49.103Z,52.27
2019-01-25T16:08:54.283Z,52.87
2019-01-25T16:12:59.324Z,52.57
2019-01-25T16:17:04.342Z,60.43
2019-01-25T16:21:09.289Z,53.03
2019-01-25T16:25:27.118Z,54.20
2019-01-25T16:29:32.077Z,56.10
2019-01-25T16:33:37.347Z,53.40
2019-01-25T16:37:42.390Z,69.53
2019-01-25T16:41:47.452Z,63.77
2019-01-25T16:45:52.493Z,53.33
2019-01-25T16:49:57.541Z,55.47
2019-01-25T16:54:02.582Z,62.37
2019-01-25T16:58:08.113Z,71.37
2019-01-25T17:02:13.094Z,62.00
2019-01-25T17:06:18.019Z,60.67
2019-01-25T17:10:23.032Z,61.77
2019-01-25T17:14:33.350Z,53.17
2019-01-25T17:18:35.139Z,64.10
2019-01-25T17:22:40.096Z,53.20
2019-01-25T17:26:44.997Z,62.00
2019-01-25T17:30:50.334Z,62.37
2019-01-25T17:34:55.513Z,55.93
2019-01-25T17:39:00.470Z,57.87
2019-01-25T17:43:05.542Z,64.70
2019-01-25T17:47:10.494Z,61.67
2019-01-25T17:51:15.489Z,61.50
2019-01-25T17:55:20.384Z,58.30
2019-01-25T17:59:26.263Z,70.27
2019-01-25T18:03:31.274Z,65.03
2019-01-25T18:07:36.201Z,73.17
2019-01-25T18:11:41.703Z,59.63
2019-01-25T18:15:46.713Z,84.87
2019-01-25T18:19:52.543Z,64.97
2019-01-25T18:23:59.449Z,97.47
2019-01-25T18:28:05.502Z,63.27
2019-01-25T18:32:10.614Z,70.97
2019-01-25T18:36:15.627Z,82.20
2019-01-25T18:40:21.076Z,67.20
2019-01-25T18:44:25.965Z,79.30
2019-01-25T18:48:30.891Z,57.27
2019-01-25T18:52:36.231Z,40.90
2019-01-25T18:56:42.202Z,68.30
2019-01-25T19:00:47.117Z,59.20
2019-01-25T19:04:52.027Z,51.93
2019-01-25T19:08:56.975Z,71.90
2019-01-25T19:13:01.901Z,81.70
2019-01-25T19:17:06.801Z,83.93
2019-01-25T19:21:11.749Z,67.63
2019-01-25T19:25:16.752Z,63.37
2019-01-25T19:29:21.673Z,95.67
2019-01-25T19:33:26.663Z,97.67
2019-01-25T19:37:31.654Z,92.77
2019-01-25T19:41:36.565Z,74.90
2019-01-25T19:45:41.631Z,74.90
2019-01-25T19:49:46.553Z,78.40
2019-01-25T19:53:51.618Z,76.23
2019-01-25T19:57:56.978Z,86.87
2019-01-25T20:02:02.197Z,82.23
2019-01-25T20:06:07.098Z,69.17
2019-01-25T20:10:12.286Z,93.40
2019-01-25T20:14:17.368Z,82.97
2019-01-25T20:18:22.661Z,96.80
2019-01-25T20:22:27.822Z,107.87
2019-01-25T20:26:32.901Z,112.20
2019-01-25T20:30:37.985Z,130.83
2019-01-25T20:34:42.954Z,106.13
2019-01-25T20:38:47.935Z,102.63
2019-01-25T20:42:52.881Z,115.27
2019-01-25T20:46:57.774Z,139.63
2019-01-25T20:51:03.098Z,151.90
2019-01-25T20:55:09.907Z,146.47
2019-01-25T20:59:14.807Z,156.57
2019-01-25T21:03:19.821Z,183.27
2019-01-25T21:07:27.840Z,171.60
2019-01-25T21:11:32.811Z,152.60
2019-01-25T21:15:37.868Z,149.63
2019-01-25T21:19:42.801Z,135.30
2019-01-25T21:23:47.803Z,124.73
2019-01-25T21:27:52.712Z,107.83
2019-01-25T21:31:57.634Z,111.90
2019-01-25T21:36:02.594Z,99.60
2019-01-25T21:40:10.827Z,108.73
2019-01-25T21:44:15.824Z,121.13
2019-01-25T21:48:20.755Z,96.97
2019-01-25T21:52:25.795Z,97.90
2019-01-25T21:56:30.825Z,83.27
2019-01-25T22:00:35.945Z,98.17
2019-01-25T22:04:41.188Z,97.03
2019-01-25T22:08:46.181Z,96.30
2019-01-25T22:12:51.211Z,92.50
2019-01-25T22:16:56.490Z,95.33
2019-01-25T22:21:01.379Z,96.03
2019-01-25T22:25:07.268Z,113.20
2019-01-25T22:29:12.184Z,115.73
2019-01-25T22:33:17.191Z,108.70
2019-01-25T22:37:23.900Z,121.97
2019-01-25T22:41:28.691Z,111.70
2019-01-25T22:45:33.627Z,119.30
2019-01-25T22:49:38.559Z,122.63
2019-01-25T22:53:43.805Z,122.47
2019-01-25T22:57:48.690Z,128.60
2019-01-25T23:01:53.611Z,123.20
2019-01-25T23:06:33.948Z,142.27
2019-01-25T23:10:39.192Z,139.00
2019-01-25T23:14:44.091Z,104.13
2019-01-25T23:18:49.009Z,134.23
2019-01-25T23:22:53.927Z,147.27
2019-01-25T23:26:58.887Z,102.73
2019-01-25T23:31:03.817Z,117.53
2019-01-25T23:35:08.693Z,145.10
2019-01-25T23:39:13.675Z,146.60
2019-01-25T23:43:18.560Z,142.47
2019-01-25T23:47:25.182Z,160.53
2019-01-25T23:51:30.153Z,155.50
2019-01-25T23:55:35.231Z,192.37
2019-01-25T23:59:40.135Z,206.40
